Time;durP1;ratioP1;P1;durP2;ratioP2;P2;SDS_P1;SDS_P2;PMS_P1;PMS_P2;Temp;Humidity;BMP_temperature;BMP_pressure;BME280_temperature;BME280_humidity;BME280_pressure;Samples;Min_cycle;Max_cycle;Signal;HPM_P1;HPM_P2
2022/06/08 00:01:20;;;;;;;7.20;5.22;;;15.70;99.90;;;;;;5094776;28;20046;-75
2022/06/08 00:03:57;;;;;;;9.20;5.00;;;15.90;99.90;;;;;;5094532;28;20075;-75
2022/06/08 00:06:23;;;;;;;8.52;4.72;;;16.00;99.90;;;;;;5093629;28;20032;-75
2022/06/08 00:08:49;;;;;;;8.82;4.55;;;16.10;99.90;;;;;;5094794;28;20414;-75
2022/06/08 00:11:16;;;;;;;7.93;4.97;;;16.10;99.90;;;;;;5094042;28;20077;-75
2022/06/08 00:13:42;;;;;;;6.72;4.82;;;15.90;99.90;;;;;;5094607;28;20035;-75
2022/06/08 00:16:10;;;;;;;9.20;4.90;;;16.00;99.90;;;;;;5093260;28;20387;-75
2022/06/08 00:18:36;;;;;;;9.55;4.65;;;16.10;99.90;;;;;;5094638;28;20031;-75
2022/06/08 00:21:02;;;;;;;14.75;5.43;;;16.20;99.90;;;;;;5094436;28;20039;-75
2022/06/08 00:23:28;;;;;;;8.40;4.60;;;16.20;99.90;;;;;;5093054;28;20396;-75
2022/06/08 00:25:54;;;;;;;8.15;4.13;;;16.20;99.90;;;;;;5094046;28;20021;-74
2022/06/08 00:28:20;;;;;;;12.70;4.18;;;16.30;99.90;;;;;;5094239;28;20019;-75
2022/06/08 00:30:45;;;;;;;8.93;4.13;;;16.30;99.90;;;;;;5092961;28;20024;-75
2022/06/08 00:33:14;;;;;;;10.07;4.38;;;16.20;99.90;;;;;;5092473;28;20036;-75
2022/06/08 00:35:41;;;;;;;7.28;3.92;;;16.40;99.90;;;;;;5090812;28;20077;-75
2022/06/08 00:38:07;;;;;;;6.93;4.03;;;16.40;99.90;;;;;;5087858;28;20058;-75
2022/06/08 00:41:02;;;;;;;7.80;3.65;;;16.30;99.90;;;;;;5084420;28;20029;-75
2022/06/08 00:43:29;;;;;;;8.10;3.80;;;16.20;99.90;;;;;;5073088;28;20393;-75
2022/06/08 00:45:56;;;;;;;6.22;3.47;;;16.20;99.90;;;;;;5092600;28;20020;-75
2022/06/08 00:48:25;;;;;;;5.60;3.67;;;16.10;99.90;;;;;;5085865;28;20052;-74
2022/06/08 00:50:54;;;;;;;9.93;3.70;;;16.10;99.90;;;;;;5087398;28;20465;-75
2022/06/08 00:53:26;;;;;;;11.82;3.60;;;16.20;99.90;;;;;;5085481;28;20047;-75
2022/06/08 00:55:55;;;;;;;6.03;2.72;;;16.20;99.90;;;;;;5093593;28;20380;-75
2022/06/08 00:58:25;;;;;;;5.03;3.80;;;16.20;99.90;;;;;;5093945;28;20057;-75
2022/06/08 01:00:52;;;;;;;4.72;3.58;;;16.10;99.90;;;;;;5092251;28;20020;-75
2022/06/08 01:03:20;;;;;;;5.82;2.97;;;16.00;99.90;;;;;;5092007;28;20024;-75
2022/06/08 01:06:06;;;;;;;7.00;3.40;;;16.10;99.90;;;;;;5092269;28;20032;-75
2022/06/08 01:08:54;;;;;;;4.65;2.95;;;16.10;99.90;;;;;;5080865;28;20028;-75
2022/06/08 01:11:39;;;;;;;8.88;3.22;;;16.10;99.90;;;;;;5092312;28;20127;-75
2022/06/08 01:14:10;;;;;;;4.22;3.17;;;16.10;99.90;;;;;;5092038;28;20027;-74
2022/06/08 01:16:39;;;;;;;8.82;3.08;;;16.00;99.90;;;;;;5092231;28;20521;-75
2022/06/08 01:19:07;;;;;;;7.63;3.13;;;15.80;99.90;;;;;;5091869;28;20032;-75
2022/06/08 01:21:33;;;;;;;6.70;3.15;;;16.00;99.90;;;;;;5091972;28;20039;-75
2022/06/08 01:24:11;;;;;;;6.85;3.10;;;16.20;99.90;;;;;;5091717;28;20031;-75
2022/06/08 01:26:50;;;;;;;4.78;3.25;;;16.40;99.90;;;;;;5092006;28;20024;-74
2022/06/08 01:29:34;;;;;;;10.55;2.78;;;16.50;99.90;;;;;;5075191;28;20030;-75
2022/06/08 01:32:15;;;;;;;5.88;3.05;;;16.50;99.90;;;;;;5080410;28;20047;-74
2022/06/08 01:35:03;;;;;;;10.32;3.25;;;16.50;99.90;;;;;;5092019;28;20020;-75
2022/06/08 01:37:41;;;;;;;6.93;3.50;;;16.30;99.90;;;;;;5092986;28;20036;-75
2022/06/08 01:40:19;;;;;;;5.38;3.05;;;16.40;99.90;;;;;;5092673;28;20028;-75
2022/06/08 01:42:45;;;;;;;7.82;2.70;;;16.50;99.90;;;;;;5080323;28;20046;-75
2022/06/08 01:45:33;;;;;;;10.30;3.25;;;16.50;99.90;;;;;;5071698;28;20107;-75
2022/06/08 01:48:26;;;;;;;3.72;2.45;;;16.50;99.90;;;;;;5086503;28;20043;-74
2022/06/08 01:51:04;;;;;;;4.28;2.97;;;16.40;99.90;;;;;;5080664;28;20540;-75
2022/06/08 01:53:45;;;;;;;7.13;3.60;;;16.20;99.90;;;;;;5092443;28;20036;-75
2022/06/08 01:56:37;;;;;;;5.43;3.00;;;16.30;99.90;;;;;;5091463;28;20051;-75
2022/06/08 01:59:16;;;;;;;4.78;3.30;;;16.30;99.90;;;;;;5091424;28;20028;-74
2022/06/08 02:01:51;;;;;;;7.80;2.80;;;16.30;99.90;;;;;;5091669;28;20036;-75
2022/06/08 02:04:40;;;;;;;6.85;2.55;;;16.10;99.90;;;;;;5079719;28;20044;-75
2022/06/08 02:07:16;;;;;;;4.18;2.83;;;16.10;99.90;;;;;;5086796;28;20028;-74
2022/06/08 02:09:52;;;;;;;5.38;3.03;;;16.10;99.90;;;;;;5091481;28;20558;-75
2022/06/08 02:12:21;;;;;;;6.15;2.65;;;16.20;99.90;;;;;;5091276;28;20039;-75
2022/06/08 02:15:13;;;;;;;7.07;2.10;;;16.10;99.90;;;;;;5091281;28;20020;-74
2022/06/08 02:17:51;;;;;;;6.22;2.78;;;16.10;99.90;;;;;;5091175;28;20027;-75
2022/06/08 02:20:24;;;;;;;5.18;2.38;;;16.10;99.90;;;;;;5091418;28;20476;-75
2022/06/08 02:22:58;;;;;;;6.25;2.70;;;16.10;99.90;;;;;;5090826;28;20082;-75
2022/06/08 02:25:50;;;;;;;6.43;2.30;;;16.00;99.90;;;;;;5091182;28;20031;-75
2022/06/08 02:28:51;;;;;;;8.00;2.58;;;16.10;99.90;;;;;;5090945;28;20032;-75
2022/06/08 02:32:02;;;;;;;4.70;2.45;;;16.00;99.90;;;;;;5074255;28;20438;-75
2022/06/08 02:34:35;;;;;;;8.15;2.88;;;16.00;99.90;;;;;;5091026;28;20165;-75
2022/06/08 02:37:12;;;;;;;8.40;3.00;;;16.20;99.90;;;;;;5090876;28;20070;-75
2022/06/08 02:39:44;;;;;;;4.55;2.70;;;16.20;99.90;;;;;;5091524;28;20020;-75
2022/06/08 02:42:19;;;;;;;7.68;2.20;;;16.20;99.90;;;;;;5085630;28;20477;-75
2022/06/08 02:44:50;;;;;;;10.45;2.35;;;16.10;99.90;;;;;;5084960;28;20024;-75
2022/06/08 02:47:30;;;;;;;6.10;2.47;;;16.10;99.90;;;;;;5084826;28;20396;-75
2022/06/08 02:50:06;;;;;;;8.95;3.10;;;15.90;99.90;;;;;;5090730;28;20273;-75
2022/06/08 02:52:36;;;;;;;6.35;2.10;;;15.90;99.90;;;;;;5090480;28;20095;-75
2022/06/08 02:55:10;;;;;;;4.07;2.05;;;16.00;99.90;;;;;;5090978;28;20020;-74
2022/06/08 02:57:49;;;;;;;3.30;2.30;;;16.00;99.90;;;;;;5090873;28;20472;-75
2022/06/08 03:00:24;;;;;;;3.45;2.15;;;16.10;99.90;;;;;;5074182;28;20032;-74
2022/06/08 03:02:54;;;;;;;14.40;2.22;;;16.20;99.90;;;;;;5090958;28;20491;-75
2022/06/08 03:05:25;;;;;;;4.80;2.45;;;16.10;99.90;;;;;;5085378;28;20090;-75
2022/06/08 03:08:01;;;;;;;3.97;2.28;;;15.90;99.90;;;;;;5090969;28;20069;-75
2022/06/08 03:10:32;;;;;;;4.07;2.72;;;15.80;99.90;;;;;;5090909;28;20131;-74
2022/06/08 03:13:09;;;;;;;5.45;2.38;;;15.80;99.90;;;;;;5090724;28;20063;-75
2022/06/08 03:15:35;;;;;;;8.68;2.83;;;15.70;99.90;;;;;;5093552;28;20028;-75
2022/06/08 03:18:03;;;;;;;7.38;2.97;;;15.60;99.90;;;;;;5094341;28;20024;-75
2022/06/08 03:20:30;;;;;;;5.05;2.75;;;15.70;99.90;;;;;;5094177;28;20046;-75
2022/06/08 03:22:57;;;;;;;8.07;2.95;;;15.80;99.90;;;;;;5094323;28;20110;-75
2022/06/08 03:25:30;;;;;;;5.43;2.80;;;16.00;99.90;;;;;;5095652;28;20415;-75
2022/06/08 03:27:55;;;;;;;7.25;2.95;;;15.90;99.90;;;;;;5094072;28;20028;-74
2022/06/08 03:30:23;;;;;;;6.38;2.72;;;16.00;99.90;;;;;;5094245;28;20035;-75
2022/06/08 03:32:50;;;;;;;11.73;3.60;;;16.00;99.90;;;;;;5093981;28;20174;-74
2022/06/08 03:35:17;;;;;;;8.20;3.10;;;16.00;99.90;;;;;;5093778;28;20480;-75
2022/06/08 03:37:44;;;;;;;8.05;3.25;;;16.00;99.90;;;;;;5093978;28;20032;-75
2022/06/08 03:40:13;;;;;;;10.90;3.38;;;16.00;99.90;;;;;;5094191;28;20407;-75
2022/06/08 03:42:39;;;;;;;8.32;3.15;;;15.90;99.90;;;;;;5083292;28;20036;-75
2022/06/08 03:45:06;;;;;;;11.65;3.22;;;15.90;99.90;;;;;;5090228;28;20055;-74
2022/06/08 03:47:38;;;;;;;11.68;4.28;;;15.90;99.90;;;;;;5088600;28;20063;-75
2022/06/08 03:50:07;;;;;;;12.95;3.78;;;15.90;99.90;;;;;;5093491;28;20059;-75
2022/06/08 03:52:37;;;;;;;7.88;3.75;;;15.80;99.90;;;;;;5093498;28;20472;-75
2022/06/08 03:55:06;;;;;;;9.05;4.75;;;15.80;99.90;;;;;;5076727;28;20031;-73
2022/06/08 03:57:34;;;;;;;14.52;5.05;;;15.90;99.90;;;;;;5093684;28;20500;-75
2022/06/08 04:00:06;;;;;;;13.18;5.18;;;15.80;99.90;;;;;;5093777;28;20034;-75
2022/06/08 04:02:44;;;;;;;9.55;4.43;;;15.60;99.90;;;;;;5094440;28;20056;-75
2022/06/08 04:05:10;;;;;;;12.95;4.82;;;15.40;99.90;;;;;;5093333;28;20093;-74
2022/06/08 04:07:36;;;;;;;5.93;4.07;;;15.50;99.90;;;;;;5094564;28;20492;-75
2022/06/08 04:10:04;;;;;;;13.60;4.45;;;15.40;99.90;;;;;;5093554;28;20477;-74
2022/06/08 04:12:32;;;;;;;9.65;4.68;;;15.20;99.90;;;;;;5093091;28;20028;-75
2022/06/08 04:14:59;;;;;;;11.50;4.45;;;15.20;99.90;;;;;;5076495;28;20530;-75
2022/06/08 04:17:26;;;;;;;10.93;4.78;;;15.20;99.90;;;;;;5092680;28;20027;-75
2022/06/08 04:19:53;;;;;;;13.63;4.35;;;15.30;99.90;;;;;;5093413;28;20057;-74
2022/06/08 04:22:21;;;;;;;10.45;4.15;;;15.30;99.90;;;;;;5093130;28;20466;-75
2022/06/08 04:24:48;;;;;;;11.25;4.93;;;15.30;99.90;;;;;;5093328;28;20024;-75
2022/06/08 04:27:15;;;;;;;8.88;4.80;;;15.40;99.90;;;;;;5072049;28;20489;-75
2022/06/08 04:29:44;;;;;;;11.15;5.35;;;15.40;99.90;;;;;;5092992;28;20504;-75
2022/06/08 04:32:11;;;;;;;11.32;4.70;;;15.50;99.90;;;;;;5092715;28;20039;-75
2022/06/08 04:34:41;;;;;;;14.75;5.13;;;15.50;99.90;;;;;;5092798;28;20016;-75
2022/06/08 04:37:09;;;;;;;7.97;4.10;;;15.70;99.90;;;;;;5076492;28;20103;-75
2022/06/08 04:39:42;;;;;;;9.43;4.53;;;15.90;99.90;;;;;;5092547;28;20032;-75
2022/06/08 04:42:09;;;;;;;12.02;4.65;;;15.70;99.90;;;;;;5086464;28;20020;-74
2022/06/08 04:44:39;;;;;;;10.63;4.50;;;15.70;99.90;;;;;;5069417;28;20422;-75
2022/06/08 04:47:10;;;;;;;9.98;4.13;;;15.70;99.90;;;;;;5087162;28;20023;-75
2022/06/08 04:49:39;;;;;;;8.20;4.45;;;15.60;99.90;;;;;;5092541;28;20472;-75
2022/06/08 04:52:06;;;;;;;11.57;4.45;;;15.70;99.90;;;;;;5092393;28;20028;-75
2022/06/08 04:54:33;;;;;;;7.60;4.20;;;15.60;99.90;;;;;;5092617;28;20484;-75
2022/06/08 04:57:00;;;;;;;11.68;4.57;;;15.70;99.90;;;;;;5092533;28;20127;-74
2022/06/08 04:59:27;;;;;;;8.93;3.60;;;15.80;99.90;;;;;;5092420;28;20024;-74
2022/06/08 05:02:02;;;;;;;7.10;4.68;;;15.60;99.90;;;;;;5092097;28;20122;-74
2022/06/08 05:04:29;;;;;;;6.85;3.95;;;15.80;99.90;;;;;;5093292;28;20074;-74
2022/06/08 05:06:55;;;;;;;13.80;4.88;;;15.80;99.90;;;;;;5092369;28;20028;-75
2022/06/08 05:09:24;;;;;;;12.13;4.45;;;15.90;99.90;;;;;;5092234;28;20495;-74
2022/06/08 05:11:50;;;;;;;10.98;4.28;;;16.00;99.90;;;;;;5092261;28;20097;-74
2022/06/08 05:14:19;;;;;;;7.25;3.22;;;16.00;99.90;;;;;;5092115;28;20058;-74
2022/06/08 05:16:45;;;;;;;10.68;3.88;;;16.10;99.90;;;;;;5092293;28;20043;-73
2022/06/08 05:19:11;;;;;;;8.77;4.07;;;16.00;99.90;;;;;;5094644;28;20020;-74
2022/06/08 05:21:37;;;;;;;8.80;4.22;;;16.00;99.90;;;;;;5093695;28;20461;-74
2022/06/08 05:24:06;;;;;;;9.85;3.35;;;15.90;99.90;;;;;;5092584;28;20028;-74
2022/06/08 05:26:40;;;;;;;9.18;3.88;;;15.90;99.90;;;;;;5091864;28;20048;-74
2022/06/08 05:29:06;;;;;;;8.00;3.60;;;16.10;99.90;;;;;;5092114;28;20022;-74
2022/06/08 05:31:35;;;;;;;9.38;2.88;;;16.10;99.90;;;;;;5089242;28;20077;-74
2022/06/08 05:34:01;;;;;;;10.35;4.18;;;16.10;99.90;;;;;;5084068;28;20069;-75
2022/06/08 05:36:28;;;;;;;11.90;3.83;;;16.00;99.90;;;;;;5073008;28;20013;-74
2022/06/08 05:38:56;;;;;;;9.20;3.20;;;16.00;99.90;;;;;;5093073;28;20032;-74
2022/06/08 05:41:28;;;;;;;9.23;3.20;;;16.00;99.90;;;;;;5093523;28;20086;-74
2022/06/08 05:43:55;;;;;;;10.23;3.40;;;16.10;99.90;;;;;;5106197;28;20023;-74
2022/06/08 05:46:21;;;;;;;9.10;3.17;;;16.10;99.90;;;;;;5099703;28;20067;-74
2022/06/08 05:48:52;;;;;;;9.23;3.17;;;16.10;99.90;;;;;;5095951;28;20019;-74
2022/06/08 05:51:18;;;;;;;8.95;3.30;;;16.20;99.90;;;;;;5093562;28;20024;-74
2022/06/08 05:53:45;;;;;;;11.95;3.08;;;16.20;99.90;;;;;;5092354;28;20377;-73
2022/06/08 05:56:11;;;;;;;12.98;4.60;;;16.30;99.90;;;;;;5106516;28;20024;-74
2022/06/08 05:58:41;;;;;;;9.73;3.35;;;16.20;99.90;;;;;;5101173;28;20045;-74
2022/06/08 06:01:07;;;;;;;8.35;3.38;;;16.20;99.90;;;;;;5095156;28;20012;-74
2022/06/08 06:03:34;;;;;;;10.75;2.83;;;16.30;99.90;;;;;;5092457;28;20027;-73
2022/06/08 06:06:01;;;;;;;4.68;2.40;;;16.40;99.90;;;;;;5103504;28;20039;-74
2022/06/08 06:08:27;;;;;;;9.05;2.50;;;16.40;99.90;;;;;;5072347;28;20472;-74
2022/06/08 06:10:59;;;;;;;9.05;2.50;;;16.50;99.90;;;;;;5089979;28;20062;-74
2022/06/08 06:13:37;;;;;;;6.03;2.50;;;16.50;99.90;;;;;;5089798;28;20071;-74
2022/06/08 06:16:06;;;;;;;9.00;2.90;;;16.50;99.90;;;;;;5089736;28;20012;-74
2022/06/08 06:18:33;;;;;;;6.38;2.90;;;16.50;99.90;;;;;;5092598;28;20482;-75
2022/06/08 06:21:25;;;;;;;8.73;3.25;;;16.60;99.90;;;;;;5092721;28;20492;-74
2022/06/08 06:24:16;;;;;;;6.47;2.47;;;16.70;99.90;;;;;;5091212;28;20039;-74
2022/06/08 06:27:03;;;;;;;13.10;2.97;;;16.80;99.90;;;;;;5082163;28;20468;-75
2022/06/08 06:29:48;;;;;;;10.43;3.03;;;16.80;99.90;;;;;;5079900;28;20028;-74
2022/06/08 06:32:37;;;;;;;15.38;2.95;;;16.70;99.90;;;;;;5075122;28;20497;-74
2022/06/08 06:35:08;;;;;;;9.73;2.92;;;16.70;99.90;;;;;;5072120;28;20017;-74
2022/06/08 06:37:34;;;;;;;10.57;2.60;;;16.60;99.90;;;;;;5088527;28;20379;-74
2022/06/08 06:40:04;;;;;;;15.10;2.95;;;16.60;99.90;;;;;;5083413;28;20017;-74
2022/06/08 06:42:33;;;;;;;13.82;2.90;;;16.60;99.90;;;;;;5079216;28;20033;-74
2022/06/08 06:45:19;;;;;;;12.57;3.25;;;16.60;99.90;;;;;;5096855;28;20081;-74
2022/06/08 06:47:50;;;;;;;10.00;3.10;;;16.70;99.90;;;;;;5085252;28;20060;-75
2022/06/08 06:50:21;;;;;;;12.18;3.08;;;16.70;99.90;;;;;;5106283;28;20028;-75
2022/06/08 06:52:49;;;;;;;11.15;2.90;;;16.80;99.90;;;;;;5107536;28;20416;-75
2022/06/08 06:55:29;;;;;;;16.80;2.95;;;16.70;99.90;;;;;;5102562;28;20016;-74
2022/06/08 06:58:00;;;;;;;10.15;3.13;;;16.70;99.90;;;;;;5096271;28;20035;-74
2022/06/08 07:00:31;;;;;;;8.10;2.55;;;16.70;99.90;;;;;;5109087;28;20020;-75
2022/06/08 07:03:00;;;;;;;13.23;3.13;;;16.80;99.90;;;;;;5091457;28;20019;-74
2022/06/08 07:05:32;;;;;;;15.43;3.10;;;16.90;99.90;;;;;;5100478;28;20494;-75
2022/06/08 07:07:58;;;;;;;;;;;16.90;99.90;;;;;;5098322;28;20387;-73
2022/06/08 07:10:24;;;;;;;14.38;3.13;;;16.80;99.90;;;;;;5095252;28;19912;-73
2022/06/08 07:12:51;;;;;;;8.40;3.03;;;16.80;99.90;;;;;;5100602;27;20041;-75
2022/06/08 07:15:19;;;;;;;13.95;3.33;;;16.80;99.90;;;;;;5109556;28;20024;-73
2022/06/08 07:17:46;;;;;;;10.05;2.50;;;16.80;99.90;;;;;;5101304;28;20020;-75
2022/06/08 07:20:13;;;;;;;15.93;3.10;;;16.80;99.90;;;;;;5096852;28;20073;-74
2022/06/08 07:22:39;;;;;;;15.90;3.15;;;16.70;99.90;;;;;;5096163;28;20024;-74
2022/06/08 07:25:07;;;;;;;8.25;3.15;;;16.80;99.90;;;;;;5097700;28;20028;-77
2022/06/08 07:27:34;;;;;;;15.82;2.85;;;16.70;99.90;;;;;;5093750;28;20024;-74
2022/06/08 07:30:00;;;;;;;9.50;3.33;;;16.70;99.90;;;;;;5083011;28;20028;-74
2022/06/08 07:32:26;;;;;;;12.35;2.70;;;16.60;99.90;;;;;;5075926;28;20397;-74
2022/06/08 07:34:51;;;;;;;15.82;3.10;;;16.80;99.90;;;;;;5079385;28;20383;-74
2022/06/08 07:37:17;;;;;;;12.85;2.78;;;16.70;99.90;;;;;;5104690;28;20047;-74
2022/06/08 07:39:43;;;;;;;9.13;2.47;;;16.70;99.90;;;;;;5091082;28;20016;-74
2022/06/08 07:42:09;;;;;;;12.00;3.30;;;16.70;99.90;;;;;;5082104;28;20081;-74
2022/06/08 07:44:34;;;;;;;12.23;3.15;;;16.80;99.90;;;;;;5099301;28;20198;-74
2022/06/08 07:47:00;;;;;;;9.50;3.30;;;16.70;99.90;;;;;;5088836;28;20158;-74
2022/06/08 07:49:39;;;;;;;6.88;2.97;;;16.70;99.90;;;;;;5094228;28;20028;-74
2022/06/08 07:52:05;;;;;;;15.25;3.63;;;16.70;99.90;;;;;;5093736;28;20040;-74
2022/06/08 07:54:32;;;;;;;13.48;3.50;;;16.70;99.90;;;;;;5093315;28;20028;-75
2022/06/08 07:56:59;;;;;;;13.48;3.60;;;16.70;99.90;;;;;;5092346;28;20050;-74
2022/06/08 07:59:27;;;;;;;12.77;3.30;;;16.80;99.90;;;;;;5095058;28;20700;-74
2022/06/08 08:01:53;;;;;;;12.40;3.50;;;16.70;99.90;;;;;;5094379;28;20036;-74
2022/06/08 08:04:21;;;;;;;11.40;3.72;;;16.70;99.90;;;;;;5093420;28;20040;-75
2022/06/08 08:06:47;;;;;;;15.90;3.75;;;16.60;99.90;;;;;;5095234;28;20028;-75
2022/06/08 08:09:17;;;;;;;12.95;3.30;;;16.70;99.90;;;;;;5094231;28;20114;-74
2022/06/08 08:11:49;;;;;;;14.88;3.60;;;16.80;99.90;;;;;;5094779;28;20028;-75
2022/06/08 08:14:17;;;;;;;12.20;3.17;;;16.80;99.90;;;;;;5094319;28;20032;-74
2022/06/08 08:16:44;;;;;;;21.73;3.50;;;16.70;99.90;;;;;;5094789;28;20035;-74
2022/06/08 08:19:12;;;;;;;10.02;3.42;;;16.70;99.90;;;;;;5093324;28;20449;-74
2022/06/08 08:21:39;;;;;;;16.80;3.70;;;16.60;99.90;;;;;;5092896;28;20431;-74
2022/06/08 08:24:05;;;;;;;12.27;2.90;;;16.50;99.90;;;;;;5092623;28;20020;-73
2022/06/08 08:26:32;;;;;;;10.80;2.95;;;16.40;99.90;;;;;;5094556;28;20116;-74
2022/06/08 08:28:59;;;;;;;13.23;3.22;;;16.50;99.90;;;;;;5093323;28;20470;-74
2022/06/08 08:31:26;;;;;;;16.83;3.88;;;16.50;99.90;;;;;;5092677;28;20027;-75
2022/06/08 08:33:52;;;;;;;11.70;3.80;;;16.40;99.90;;;;;;5094214;28;20035;-74
2022/06/08 08:36:19;;;;;;;9.82;3.08;;;16.40;99.90;;;;;;5094182;28;20024;-77
2022/06/08 08:38:46;;;;;;;15.02;2.95;;;16.40;99.90;;;;;;5078745;28;20389;-74
2022/06/08 08:44:38;;;;;;;8.10;2.55;;;16.00;99.90;;;;;;5082634;28;20539;-74
2022/06/08 08:47:28;;;;;;;10.30;2.35;;;16.00;99.90;;;;;;5086216;28;20024;-74
2022/06/08 08:49:56;;;;;;;9.90;2.90;;;16.10;99.90;;;;;;5094088;28;20089;-74
2022/06/08 08:52:50;;;;;;;9.50;2.58;;;16.10;99.90;;;;;;5093550;28;20058;-74
2022/06/08 08:55:39;;;;;;;10.10;1.75;;;16.10;99.90;;;;;;5092304;28;20067;-73
2022/06/08 08:58:14;;;;;;;8.30;2.58;;;16.00;99.90;;;;;;5094019;28;20050;-74
2022/06/08 09:01:20;;;;;;;9.77;2.22;;;15.80;99.90;;;;;;5095840;28;20032;-73
2022/06/08 09:03:49;;;;;;;16.58;2.92;;;15.80;99.90;;;;;;5079504;28;20070;-74
2022/06/08 09:06:20;;;;;;;13.25;2.50;;;15.70;99.90;;;;;;5093629;28;20067;-74
2022/06/08 09:08:49;;;;;;;10.07;2.28;;;15.80;99.90;;;;;;5091942;28;20130;-74
2022/06/08 09:11:16;;;;;;;11.93;2.55;;;15.60;99.90;;;;;;5093333;28;20411;-74
2022/06/08 09:13:43;;;;;;;10.20;3.05;;;15.50;99.90;;;;;;5091564;28;20062;-74
2022/06/08 09:16:09;;;;;;;13.00;2.42;;;15.50;99.90;;;;;;5093542;28;20016;-74
2022/06/08 09:18:41;;;;;;;12.43;2.92;;;15.40;99.90;;;;;;5092118;28;20028;-74
2022/06/08 09:21:34;;;;;;;20.80;3.65;;;15.60;99.90;;;;;;5091945;28;20019;-74
2022/06/08 09:24:26;;;;;;;10.02;2.65;;;15.60;99.90;;;;;;5092898;28;20063;-74
2022/06/08 09:26:57;;;;;;;10.18;2.45;;;15.50;99.90;;;;;;5092113;28;20024;-74
2022/06/08 09:29:29;;;;;;;6.25;2.47;;;15.40;99.90;;;;;;5092886;28;20562;-75
2022/06/08 09:31:56;;;;;;;15.07;2.53;;;15.40;99.90;;;;;;5075094;28;20034;-74
2022/06/08 09:34:29;;;;;;;15.55;2.60;;;15.50;99.90;;;;;;5092853;28;20024;-74
2022/06/08 09:37:04;;;;;;;10.13;2.80;;;15.50;99.90;;;;;;5091496;28;20103;-74
2022/06/08 09:39:30;;;;;;;13.30;3.28;;;15.40;99.90;;;;;;5091451;28;20042;-74
2022/06/08 09:41:59;;;;;;;9.70;2.45;;;15.60;99.90;;;;;;5088491;28;20029;-74
2022/06/08 09:44:31;;;;;;;12.82;3.72;;;15.50;99.90;;;;;;5083509;28;20054;-74
2022/06/08 09:53:05;;;;;;;13.27;2.80;;;15.50;99.90;;;;;;5092452;28;20040;-74
2022/06/08 09:55:46;;;;;;;11.55;2.92;;;15.60;99.90;;;;;;5091281;28;20028;-74
2022/06/08 09:58:30;;;;;;;9.48;3.13;;;15.70;99.90;;;;;;5092919;28;20465;-74
2022/06/08 10:01:11;;;;;;;6.60;2.90;;;15.60;99.90;;;;;;5080371;28;20408;-73
2022/06/08 10:03:46;;;;;;;7.17;3.00;;;15.50;99.90;;;;;;5072637;28;20545;-73
2022/06/08 10:06:27;;;;;;;6.55;2.95;;;15.70;99.90;;;;;;5092028;28;20035;-74
2022/06/08 10:09:03;;;;;;;8.57;2.92;;;15.70;99.90;;;;;;5091854;28;20063;-74
2022/06/08 10:11:47;;;;;;;12.38;4.47;;;15.70;99.90;;;;;;5079306;28;20032;-74
2022/06/08 10:14:22;;;;;;;13.20;3.42;;;15.70;99.90;;;;;;5077489;28;20038;-74
2022/06/08 10:17:00;;;;;;;5.63;2.90;;;15.80;99.90;;;;;;5074905;28;20029;-74
2022/06/08 10:19:34;;;;;;;8.77;2.83;;;15.90;99.90;;;;;;5082364;28;20577;-72
2022/06/08 10:22:02;;;;;;;14.20;3.72;;;15.70;99.90;;;;;;5071864;28;20044;-72
2022/06/08 10:24:34;;;;;;;9.77;3.67;;;15.70;99.90;;;;;;5073444;28;20046;-78
2022/06/08 10:27:33;;;;;;;15.98;3.90;;;15.60;99.90;;;;;;5075816;28;20024;-77
2022/06/08 10:30:33;;;;;;;9.25;3.88;;;15.60;99.90;;;;;;5066996;28;20043;-77
2022/06/08 10:33:05;;;;;;;11.80;3.78;;;15.70;99.90;;;;;;5074788;28;20127;-77
2022/06/08 10:35:43;;;;;;;9.75;3.88;;;15.70;99.90;;;;;;5057894;28;20023;-77
2022/06/08 10:38:32;;;;;;;8.48;3.92;;;15.80;99.90;;;;;;5074859;28;20048;-77
2022/06/08 10:41:04;;;;;;;10.25;4.10;;;16.10;99.90;;;;;;5075983;28;20032;-76
2022/06/08 10:43:32;;;;;;;;;;;15.90;99.90;;;;;;5078329;28;20020;-77
2022/06/08 10:46:01;;;;;;;12.55;3.72;;;16.00;99.90;;;;;;5096211;28;20050;-77
2022/06/08 10:48:48;;;;;;;9.32;3.42;;;15.90;99.90;;;;;;5094778;28;20038;-76
2022/06/08 10:51:13;;;;;;;7.18;3.38;;;16.00;99.90;;;;;;5096081;28;20060;-77
2022/06/08 10:56:34;;;;;;;7.05;3.00;;;15.80;99.90;;;;;;5095907;28;20035;-76
2022/06/08 10:59:03;;;;;;;5.93;2.58;;;15.90;99.90;;;;;;5096173;28;20035;-77
2022/06/08 11:01:51;;;;;;;19.90;3.65;;;15.90;99.90;;;;;;5094517;28;20052;-76
2022/06/08 11:04:55;;;;;;;8.60;2.65;;;15.90;99.90;;;;;;5087283;28;20452;-78
2022/06/08 11:07:22;;;;;;;5.63;2.10;;;15.90;99.90;;;;;;5094748;28;20052;-77
2022/06/08 11:10:00;;;;;;;11.85;2.63;;;15.70;99.90;;;;;;5095854;28;20024;-77
2022/06/08 11:12:35;;;;;;;5.57;1.88;;;15.90;99.90;;;;;;5095656;28;20028;-77
2022/06/08 11:15:26;;;;;;;4.63;2.25;;;15.80;99.90;;;;;;5095832;28;20031;-78
2022/06/08 11:18:03;;;;;;;3.50;1.92;;;15.80;99.90;;;;;;5095350;28;20031;-78
2022/06/08 11:20:38;;;;;;;3.90;1.80;;;15.80;99.90;;;;;;5095608;28;20039;-77
2022/06/08 11:23:15;;;;;;;3.35;1.95;;;15.90;99.90;;;;;;5095724;28;20108;-77
2022/06/08 11:26:14;;;;;;;3.83;2.10;;;15.80;99.90;;;;;;5095495;28;20032;-76
2022/06/08 11:28:44;;;;;;;2.97;1.85;;;15.80;99.90;;;;;;5094316;28;20568;-76
2022/06/08 11:31:33;;;;;;;8.60;2.00;;;15.80;99.90;;;;;;5095422;28;20036;-77
2022/06/08 11:34:04;;;;;;;6.63;2.47;;;15.90;99.90;;;;;;5088827;28;20519;-78
2022/06/08 11:36:59;;;;;;;2.70;1.40;;;15.80;99.90;;;;;;5093160;28;20118;-77
2022/06/08 11:39:44;;;;;;;4.82;1.70;;;15.90;99.90;;;;;;5095290;28;20024;-77
2022/06/08 11:42:29;;;;;;;7.68;1.58;;;16.00;99.90;;;;;;5088851;28;20033;-76
2022/06/08 11:45:10;;;;;;;3.22;1.42;;;15.90;99.90;;;;;;5088767;28;20038;-76
2022/06/08 11:47:40;;;;;;;3.58;1.52;;;16.00;99.90;;;;;;5086922;28;20038;-76
2022/06/08 11:50:23;;;;;;;3.42;2.10;;;15.80;99.90;;;;;;5093675;28;20028;-77
2022/06/08 11:53:05;;;;;;;3.03;1.92;;;15.90;99.90;;;;;;5093620;28;20544;-74
2022/06/08 11:55:36;;;;;;;2.90;1.92;;;16.10;99.90;;;;;;5094755;28;20020;-77
2022/06/08 11:58:08;;;;;;;2.35;1.30;;;16.20;99.90;;;;;;5094391;28;20032;-76
2022/06/08 12:00:55;;;;;;;;;;;16.10;99.90;;;;;;5095113;28;20032;-77
2022/06/08 12:03:27;;;;;;;2.15;0.85;;;16.00;99.90;;;;;;5094534;28;20284;-76
2022/06/08 12:06:03;;;;;;;3.10;1.33;;;15.80;99.90;;;;;;5093456;28;20027;-77
2022/06/08 12:08:45;;;;;;;1.88;1.48;;;15.90;99.90;;;;;;5093544;28;20040;-77
2022/06/08 12:11:17;;;;;;;2.67;1.20;;;16.00;99.90;;;;;;5094607;28;20032;-77
2022/06/08 12:13:56;;;;;;;5.35;1.60;;;16.00;99.90;;;;;;5094489;28;20085;-77
2022/06/08 12:16:22;;;;;;;4.97;1.65;;;16.20;99.90;;;;;;5082688;28;20031;-76
2022/06/08 12:19:14;;;;;;;4.15;1.60;;;16.10;99.90;;;;;;5093257;28;20020;-77
2022/06/08 12:21:44;;;;;;;5.22;2.08;;;16.20;99.90;;;;;;5080352;28;20572;-78
2022/06/08 12:24:13;;;;;;;5.57;1.95;;;16.20;99.90;;;;;;5094069;28;20485;-77
2022/06/08 12:26:51;;;;;;;4.30;1.90;;;16.30;99.90;;;;;;5093289;28;20032;-77
2022/06/08 12:29:21;;;;;;;6.22;2.33;;;16.40;99.90;;;;;;5094084;28;20036;-77
2022/06/08 12:32:17;;;;;;;5.22;2.05;;;16.50;99.90;;;;;;5094056;28;20088;-77
2022/06/08 12:35:04;;;;;;;6.30;2.53;;;16.40;99.90;;;;;;5093796;28;20040;-77
2022/06/08 12:37:45;;;;;;;7.40;2.95;;;16.50;99.90;;;;;;5090005;28;20044;-77
2022/06/08 12:40:16;;;;;;;8.90;2.75;;;16.40;99.90;;;;;;5081833;28;20420;-77
2022/06/08 12:43:09;;;;;;;8.13;2.67;;;16.60;99.90;;;;;;5082076;28;20032;-77
2022/06/08 12:45:37;;;;;;;7.30;2.78;;;16.50;99.90;;;;;;5078443;28;20043;-77
2022/06/08 12:48:24;;;;;;;9.18;3.47;;;16.40;99.90;;;;;;5085122;28;20064;-77
2022/06/08 12:50:51;;;;;;;10.85;3.45;;;16.50;99.90;;;;;;5081470;28;20026;-77
2022/06/08 12:53:18;;;;;;;8.02;3.10;;;16.60;99.90;;;;;;5094176;28;20076;-76
2022/06/08 12:55:45;;;;;;;12.75;3.53;;;16.50;99.90;;;;;;5094087;28;20095;-77
2022/06/08 12:58:11;;;;;;;7.55;3.60;;;16.40;99.90;;;;;;5081158;28;20063;-76
2022/06/08 13:00:44;;;;;;;8.90;3.50;;;16.40;99.90;;;;;;5093053;28;20020;-74
2022/06/08 13:03:22;;;;;;;11.75;3.63;;;16.50;99.90;;;;;;5093770;28;20373;-77
2022/06/08 13:05:49;;;;;;;14.98;4.50;;;16.50;99.90;;;;;;5093330;28;20028;-77
2022/06/08 13:08:26;;;;;;;13.30;4.45;;;16.70;99.90;;;;;;5130961;27;20115;-69
2022/06/08 13:10:54;;;;;;;15.70;4.60;;;16.60;99.90;;;;;;5129751;28;20480;-69
2022/06/08 13:13:23;;;;;;;13.95;4.40;;;16.60;99.90;;;;;;5131018;27;20068;-72
2022/06/08 13:15:49;;;;;;;9.75;3.80;;;16.60;99.90;;;;;;5130396;27;20532;-69
2022/06/08 13:18:20;;;;;;;12.48;4.65;;;16.40;99.90;;;;;;5130887;27;20035;-69
2022/06/08 13:20:47;;;;;;;14.57;4.57;;;16.60;99.90;;;;;;5130811;27;20053;-72
2022/06/08 13:23:14;;;;;;;18.92;5.60;;;16.90;99.90;;;;;;5130663;28;20310;-69
2022/06/08 13:25:42;;;;;;;16.05;5.57;;;17.00;99.90;;;;;;5130351;27;20065;-72